Time;durP1;ratioP1;P1;durP2;ratioP2;P2;SDS_P1;SDS_P2;PMS_P1;PMS_P2;Temp;Humidity;BMP_temperature;BMP_pressure;BME280_temperature;BME280_humidity;BME280_pressure;Samples;Min_cycle;Max_cycle;Signal;HPM_P1;HPM_P2
2021/06/14 00:01:29;;;;;;;9.30;4.75;;;13.60;35.00;;;;;;4918726;29;20064;-86
2021/06/14 00:03:54;;;;;;;9.80;4.40;;;13.60;35.30;;;;;;4918568;29;20039;-85
2021/06/14 00:06:20;;;;;;;9.10;4.72;;;13.60;35.30;;;;;;4918474;29;20031;-85
2021/06/14 00:08:45;;;;;;;10.95;4.63;;;13.60;35.40;;;;;;4918533;29;20039;-84
2021/06/14 00:11:12;;;;;;;9.10;4.13;;;13.60;35.50;;;;;;4918282;29;20418;-84
2021/06/14 00:13:38;;;;;;;9.10;4.30;;;13.50;35.60;;;;;;4918666;29;20027;-84
2021/06/14 00:16:06;;;;;;;10.13;4.80;;;13.40;35.70;;;;;;4911719;29;20055;-84
2021/06/14 00:18:33;;;;;;;12.48;5.18;;;13.40;36.00;;;;;;4917927;29;20107;-84
2021/06/14 00:21:04;;;;;;;10.65;4.88;;;13.40;36.30;;;;;;4918137;29;20465;-85
2021/06/14 00:23:30;;;;;;;10.57;4.70;;;13.40;36.30;;;;;;4917953;29;20035;-85
2021/06/14 00:25:58;;;;;;;11.13;4.70;;;13.20;36.20;;;;;;4916889;29;20143;-84
2021/06/14 00:28:24;;;;;;;9.93;5.07;;;13.20;36.20;;;;;;4917672;29;20036;-85
2021/06/14 00:30:53;;;;;;;10.55;4.40;;;13.20;36.40;;;;;;4917842;29;20016;-84
2021/06/14 00:33:20;;;;;;;11.93;4.55;;;13.20;36.70;;;;;;4917904;29;20024;-84
2021/06/14 00:35:47;;;;;;;13.98;5.93;;;13.10;36.70;;;;;;4917803;29;20052;-84
2021/06/14 00:38:14;;;;;;;11.18;4.70;;;13.10;36.80;;;;;;4917639;29;20374;-84
2021/06/14 00:40:40;;;;;;;11.10;4.70;;;13.10;37.50;;;;;;4900059;29;20116;-84
2021/06/14 00:43:07;;;;;;;11.35;5.03;;;13.00;36.80;;;;;;4917814;29;20540;-84
2021/06/14 00:45:35;;;;;;;10.98;4.75;;;13.00;37.00;;;;;;4917744;29;20023;-84
2021/06/14 00:48:03;;;;;;;11.43;4.97;;;12.90;37.20;;;;;;4917563;29;20036;-84
2021/06/14 00:50:46;;;;;;;9.90;4.70;;;12.90;37.40;;;;;;4917747;29;20068;-84
2021/06/14 00:53:35;;;;;;;11.85;4.78;;;12.90;37.60;;;;;;4912396;29;20110;-84
2021/06/14 00:56:03;;;;;;;11.82;4.43;;;12.80;37.50;;;;;;4917399;29;20036;-84
2021/06/14 00:58:29;;;;;;;10.07;4.68;;;12.80;37.50;;;;;;4917277;29;20119;-85
2021/06/14 01:00:55;;;;;;;9.52;4.70;;;12.70;37.50;;;;;;4917463;29;20103;-85
2021/06/14 01:03:21;;;;;;;11.13;5.15;;;12.70;37.70;;;;;;4917320;29;20120;-84
2021/06/14 01:05:55;;;;;;;10.85;5.00;;;12.70;38.00;;;;;;4917221;29;20028;-84
2021/06/14 01:08:21;;;;;;;11.45;5.03;;;12.60;38.00;;;;;;4917744;29;20032;-84
2021/06/14 01:10:50;;;;;;;11.15;4.90;;;12.60;37.80;;;;;;4900502;29;20091;-84
2021/06/14 01:13:37;;;;;;;11.13;5.10;;;12.50;37.90;;;;;;4917728;29;20020;-84
2021/06/14 01:16:20;;;;;;;12.18;5.20;;;12.50;38.10;;;;;;4912054;29;20068;-84
2021/06/14 01:19:07;;;;;;;11.10;5.10;;;12.40;38.40;;;;;;4917555;29;20040;-84
2021/06/14 01:21:48;;;;;;;10.55;4.63;;;12.40;38.40;;;;;;4900671;29;20016;-84
2021/06/14 01:24:32;;;;;;;9.65;5.00;;;12.40;38.40;;;;;;4900020;29;20028;-84
2021/06/14 01:27:03;;;;;;;10.90;5.38;;;12.30;38.30;;;;;;4900234;29;20491;-85
2021/06/14 01:29:31;;;;;;;11.68;5.35;;;12.30;38.40;;;;;;4916849;29;20020;-85
2021/06/14 01:31:58;;;;;;;11.10;5.28;;;12.20;38.60;;;;;;4916598;29;20432;-85
2021/06/14 01:34:27;;;;;;;14.35;5.63;;;12.20;38.70;;;;;;4917144;29;20024;-84
2021/06/14 01:36:55;;;;;;;10.90;5.38;;;12.20;39.00;;;;;;4916745;29;20024;-84
2021/06/14 01:39:23;;;;;;;9.68;4.90;;;12.10;38.80;;;;;;4916860;29;20039;-84
2021/06/14 01:41:49;;;;;;;9.38;4.68;;;12.10;38.90;;;;;;4916824;29;20028;-84
2021/06/14 01:44:17;;;;;;;10.23;5.07;;;12.10;39.10;;;;;;4916847;29;20055;-84
2021/06/14 01:46:44;;;;;;;11.30;4.75;;;12.10;39.30;;;;;;4916584;29;20024;-84
2021/06/14 01:49:11;;;;;;;10.55;5.05;;;12.10;39.10;;;;;;4917119;29;20028;-84
2021/06/14 01:51:40;;;;;;;12.75;5.18;;;12.00;39.30;;;;;;4916539;29;20031;-84
2021/06/14 01:54:06;;;;;;;11.70;5.22;;;11.90;39.40;;;;;;4899845;29;20353;-84
2021/06/14 01:56:53;;;;;;;11.00;5.78;;;11.90;39.50;;;;;;4916436;29;20047;-84
2021/06/14 01:59:22;;;;;;;9.65;4.72;;;11.90;39.70;;;;;;4900005;29;21042;-85
2021/06/14 02:01:49;;;;;;;11.85;5.85;;;11.80;39.70;;;;;;4916651;29;20028;-85
2021/06/14 02:04:16;;;;;;;11.63;5.65;;;11.80;39.70;;;;;;4916752;29;20068;-85
2021/06/14 02:06:44;;;;;;;11.38;5.00;;;11.80;39.80;;;;;;4916261;29;20496;-85
2021/06/14 02:09:14;;;;;;;11.73;5.30;;;11.70;40.10;;;;;;4916901;29;20028;-85
2021/06/14 02:11:43;;;;;;;11.77;5.97;;;11.70;40.10;;;;;;4916522;29;20040;-84
2021/06/14 02:14:14;;;;;;;10.98;5.15;;;11.70;40.20;;;;;;4916728;29;20039;-85
2021/06/14 02:16:42;;;;;;;13.63;5.50;;;11.60;40.10;;;;;;4916348;29;20028;-84
2021/06/14 02:19:08;;;;;;;11.85;5.63;;;11.60;40.30;;;;;;4916433;29;20481;-84
2021/06/14 02:21:34;;;;;;;11.38;5.78;;;11.60;40.40;;;;;;4916629;29;20071;-85
2021/06/14 02:24:00;;;;;;;12.95;5.95;;;11.50;40.40;;;;;;4916407;29;21204;-84
2021/06/14 02:26:26;;;;;;;10.48;5.63;;;11.50;40.30;;;;;;4916871;29;20515;-84
2021/06/14 02:28:51;;;;;;;14.05;6.25;;;11.50;40.50;;;;;;4916296;29;20040;-84
2021/06/14 02:31:17;;;;;;;12.18;5.45;;;11.40;40.50;;;;;;4904416;29;20035;-85
2021/06/14 02:33:43;;;;;;;10.15;5.10;;;11.40;40.60;;;;;;4916344;29;20393;-85
2021/06/14 02:36:09;;;;;;;11.90;5.90;;;11.30;40.60;;;;;;4916389;29;20032;-84
2021/06/14 02:38:36;;;;;;;11.25;5.40;;;11.40;40.80;;;;;;4916237;29;20077;-85
2021/06/14 02:41:02;;;;;;;11.48;5.80;;;11.40;40.90;;;;;;4918881;29;20092;-83
2021/06/14 02:43:28;;;;;;;12.60;5.72;;;11.30;41.00;;;;;;4920075;29;20071;-84
2021/06/14 02:45:54;;;;;;;16.35;5.70;;;11.30;41.10;;;;;;4919749;29;20036;-84
2021/06/14 02:48:22;;;;;;;11.73;5.97;;;11.30;41.30;;;;;;4920008;29;20091;-84
2021/06/14 02:50:48;;;;;;;12.88;6.03;;;11.30;41.30;;;;;;4919874;29;20455;-84
2021/06/14 02:53:14;;;;;;;12.38;6.28;;;11.20;41.20;;;;;;4920070;29;20445;-84
2021/06/14 02:55:52;;;;;;;11.55;6.38;;;11.20;41.40;;;;;;4919907;29;20027;-84
2021/06/14 02:58:28;;;;;;;13.00;6.00;;;11.20;41.60;;;;;;4919400;29;20560;-84
2021/06/14 03:00:54;;;;;;;13.80;6.40;;;11.10;41.80;;;;;;4919345;29;20021;-84
2021/06/14 03:03:20;;;;;;;13.60;6.07;;;11.10;41.70;;;;;;4919715;29;20028;-85
2021/06/14 03:05:46;;;;;;;14.23;6.13;;;11.10;41.80;;;;;;4919506;29;20566;-84
2021/06/14 03:08:15;;;;;;;14.75;6.07;;;11.00;41.80;;;;;;4902553;29;20489;-84
2021/06/14 03:10:41;;;;;;;12.98;5.65;;;11.00;41.80;;;;;;4919410;29;20032;-84
2021/06/14 03:13:07;;;;;;;12.52;6.40;;;11.00;41.90;;;;;;4919514;29;20048;-84
2021/06/14 03:15:33;;;;;;;12.80;5.88;;;10.90;42.00;;;;;;4919808;29;20074;-86
2021/06/14 03:18:00;;;;;;;14.00;6.05;;;10.90;41.90;;;;;;4919259;29;20036;-86
2021/06/14 03:20:26;;;;;;;14.05;6.10;;;11.00;42.20;;;;;;4919347;29;20020;-86
2021/06/14 03:22:53;;;;;;;12.05;6.22;;;10.90;42.20;;;;;;4918917;29;20089;-85
2021/06/14 03:25:20;;;;;;;13.85;5.93;;;10.90;42.30;;;;;;4919200;29;20028;-86
2021/06/14 03:27:46;;;;;;;11.98;6.30;;;10.90;42.50;;;;;;4918924;29;20111;-86
2021/06/14 03:30:13;;;;;;;13.85;5.97;;;10.90;42.50;;;;;;4919068;29;20032;-86
2021/06/14 03:32:41;;;;;;;16.25;6.90;;;10.90;42.50;;;;;;4919241;29;20040;-85
2021/06/14 03:35:13;;;;;;;12.48;6.50;;;10.90;42.90;;;;;;4919069;29;20024;-85
2021/06/14 03:37:39;;;;;;;15.82;6.97;;;10.90;42.90;;;;;;4919120;29;20115;-85
2021/06/14 03:40:05;;;;;;;12.20;6.50;;;11.00;43.00;;;;;;4901926;29;20460;-84
2021/06/14 03:42:31;;;;;;;13.80;7.40;;;10.90;43.00;;;;;;4902168;29;20477;-85
2021/06/14 03:44:58;;;;;;;13.20;6.35;;;11.00;43.20;;;;;;4918554;29;20024;-86
2021/06/14 03:47:24;;;;;;;14.65;6.60;;;11.00;43.30;;;;;;4918730;29;20038;-86
2021/06/14 03:49:49;;;;;;;15.63;7.45;;;11.00;43.30;;;;;;4918892;29;20115;-85
2021/06/14 03:52:15;;;;;;;14.57;6.80;;;11.00;43.30;;;;;;4919056;29;20036;-85
2021/06/14 03:54:41;;;;;;;15.05;6.25;;;11.00;43.50;;;;;;4902262;29;20067;-86
2021/06/14 03:57:07;;;;;;;14.32;6.57;;;11.00;43.40;;;;;;4918589;29;20504;-86
2021/06/14 03:59:32;;;;;;;15.50;6.97;;;11.00;43.60;;;;;;4919266;29;20123;-85
2021/06/14 04:01:58;;;;;;;14.82;7.00;;;11.10;43.80;;;;;;4917475;29;20028;-85
2021/06/14 04:04:40;;;;;;;14.13;6.53;;;11.10;43.80;;;;;;4918957;29;20032;-85
2021/06/14 04:07:06;;;;;;;13.68;6.72;;;11.10;43.90;;;;;;4918504;29;20564;-85
2021/06/14 04:09:32;;;;;;;12.90;6.55;;;11.10;44.00;;;;;;4918421;29;20103;-86
2021/06/14 04:12:00;;;;;;;13.85;6.93;;;11.20;44.10;;;;;;4918401;29;20476;-85
2021/06/14 04:14:26;;;;;;;14.95;7.93;;;11.20;44.20;;;;;;4918287;29;20052;-85
2021/06/14 04:16:51;;;;;;;16.25;7.55;;;11.20;44.30;;;;;;4918684;29;20047;-85
2021/06/14 04:19:17;;;;;;;16.73;7.72;;;11.20;44.40;;;;;;4918265;29;20445;-85
2021/06/14 04:21:42;;;;;;;15.38;8.43;;;11.20;44.40;;;;;;4918085;29;20035;-85
2021/06/14 04:24:08;;;;;;;18.30;8.27;;;11.30;44.50;;;;;;4898946;29;20032;-85
2021/06/14 04:26:34;;;;;;;15.70;8.43;;;11.30;44.80;;;;;;4916760;29;20028;-85
2021/06/14 04:28:59;;;;;;;18.15;8.80;;;11.30;44.80;;;;;;4918258;29;20395;-84
2021/06/14 04:31:25;;;;;;;18.10;8.65;;;11.40;45.10;;;;;;4920073;29;20385;-84
2021/06/14 04:33:50;;;;;;;18.50;7.88;;;11.50;45.70;;;;;;4921526;29;20044;-83
2021/06/14 04:36:16;;;;;;;16.80;8.27;;;11.50;45.20;;;;;;4917530;29;20030;-83
2021/06/14 04:38:42;;;;;;;16.05;8.20;;;11.50;45.20;;;;;;4917899;29;20043;-84
2021/06/14 04:41:07;;;;;;;18.08;8.25;;;11.60;45.50;;;;;;4918299;29;20028;-83
2021/06/14 04:43:33;;;;;;;15.93;8.52;;;11.60;45.50;;;;;;4904924;29;20037;-80
2021/06/14 04:45:59;;;;;;;15.25;8.43;;;11.70;45.60;;;;;;4917722;29;20465;-84
2021/06/14 04:48:25;;;;;;;16.92;9.15;;;11.70;45.60;;;;;;4918189;29;20020;-84
2021/06/14 04:50:50;;;;;;;17.42;9.38;;;11.80;45.80;;;;;;4920096;29;20434;-83
2021/06/14 04:53:16;;;;;;;14.90;8.52;;;11.80;45.80;;;;;;4918205;29;20020;-82
2021/06/14 04:55:42;;;;;;;15.18;8.35;;;11.90;46.00;;;;;;4917711;29;20032;-82
2021/06/14 04:58:08;;;;;;;14.15;8.32;;;11.90;46.00;;;;;;4917791;29;20088;-81
2021/06/14 05:00:34;;;;;;;17.20;8.40;;;11.90;46.20;;;;;;4917443;29;20056;-81
2021/06/14 05:03:00;;;;;;;16.02;7.78;;;12.00;46.30;;;;;;4917272;29;20044;-82
2021/06/14 05:05:26;;;;;;;13.85;7.18;;;12.00;46.40;;;;;;4917522;29;20045;-81
2021/06/14 05:07:51;;;;;;;13.88;7.93;;;12.10;46.50;;;;;;4917002;29;20028;-82
2021/06/14 05:10:17;;;;;;;13.18;7.70;;;12.20;46.60;;;;;;4917663;29;20036;-82
2021/06/14 05:12:42;;;;;;;14.48;6.47;;;12.20;46.60;;;;;;4917383;29;20488;-84
2021/06/14 05:15:09;;;;;;;14.23;6.85;;;12.30;47.10;;;;;;4916910;29;20048;-82
2021/06/14 05:17:34;;;;;;;13.13;6.68;;;12.30;47.00;;;;;;4917386;29;20048;-83
2021/06/14 05:20:00;;;;;;;17.27;7.10;;;12.40;47.00;;;;;;4918778;29;20027;-84
2021/06/14 05:22:28;;;;;;;11.43;6.70;;;12.50;47.10;;;;;;4917872;29;20036;-84
2021/06/14 05:24:54;;;;;;;10.95;6.20;;;12.50;47.20;;;;;;4917214;29;20024;-87
2021/06/14 05:27:19;;;;;;;12.70;6.50;;;12.60;47.30;;;;;;4885574;29;20378;-82
2021/06/14 05:29:45;;;;;;;12.93;6.85;;;12.70;47.40;;;;;;4900403;29;20035;-83
2021/06/14 05:32:10;;;;;;;12.38;6.57;;;12.80;47.60;;;;;;4915731;29;20082;-82
2021/06/14 05:34:36;;;;;;;12.05;5.93;;;12.80;47.40;;;;;;4917634;29;20111;-83
2021/06/14 05:37:02;;;;;;;10.15;4.93;;;12.90;47.50;;;;;;4916809;29;20047;-82
2021/06/14 05:39:27;;;;;;;12.20;5.43;;;13.00;47.80;;;;;;4917025;29;20024;-82
2021/06/14 05:41:53;;;;;;;11.27;4.78;;;13.10;47.90;;;;;;4916494;29;20396;-83
2021/06/14 05:44:19;;;;;;;10.25;4.68;;;13.10;47.80;;;;;;4916758;29;20036;-83
2021/06/14 05:46:44;;;;;;;12.55;4.90;;;13.10;47.70;;;;;;4916859;29;20032;-82
2021/06/14 05:49:10;;;;;;;10.38;4.47;;;13.20;47.90;;;;;;4901016;29;20055;-82
2021/06/14 05:51:38;;;;;;;10.75;4.80;;;13.20;48.10;;;;;;4916718;29;20469;-83
2021/06/14 05:54:05;;;;;;;10.20;4.50;;;13.30;48.20;;;;;;4916636;29;20024;-81
2021/06/14 05:56:31;;;;;;;9.75;4.70;;;13.40;48.40;;;;;;4916752;29;20368;-82
2021/06/14 05:58:56;;;;;;;8.70;4.25;;;13.50;48.50;;;;;;4916651;29;20028;-81
2021/06/14 06:01:22;;;;;;;9.88;4.18;;;13.60;48.40;;;;;;4900799;29;20039;-82
2021/06/14 06:03:47;;;;;;;10.57;4.90;;;13.60;48.60;;;;;;4915537;29;20135;-82
2021/06/14 06:06:13;;;;;;;10.95;4.28;;;13.70;48.70;;;;;;4916593;29;20044;-82
2021/06/14 06:08:39;;;;;;;7.80;3.72;;;13.80;48.70;;;;;;4916714;29;20472;-82
2021/06/14 06:11:04;;;;;;;8.90;4.13;;;13.90;48.90;;;;;;4916403;29;20043;-82
2021/06/14 06:13:30;;;;;;;10.88;4.25;;;14.00;48.80;;;;;;4916578;29;20032;-85
2021/06/14 06:15:56;;;;;;;9.90;4.03;;;14.10;48.70;;;;;;4918429;29;20123;-84
2021/06/14 06:18:22;;;;;;;10.65;4.53;;;14.20;48.80;;;;;;4920166;29;20047;-85
2021/06/14 06:20:50;;;;;;;10.52;3.90;;;14.30;49.20;;;;;;4903552;29;20028;-87
2021/06/14 06:23:18;;;;;;;8.57;3.78;;;14.40;49.20;;;;;;4920005;29;20473;-88
2021/06/14 06:25:47;;;;;;;9.30;3.65;;;14.60;49.10;;;;;;4920167;29;20032;-86
2021/06/14 06:28:15;;;;;;;9.75;3.70;;;14.70;49.20;;;;;;4920111;29;20107;-85
2021/06/14 06:30:42;;;;;;;8.13;3.70;;;14.80;49.40;;;;;;4920039;29;20028;-86
2021/06/14 06:33:08;;;;;;;8.30;3.65;;;15.00;49.40;;;;;;4920456;29;20453;-84
2021/06/14 06:35:39;;;;;;;9.20;3.40;;;15.10;49.50;;;;;;4920099;29;20030;-85
2021/06/14 06:38:06;;;;;;;8.65;3.67;;;15.20;49.30;;;;;;4916015;29;20036;-84
2021/06/14 06:40:35;;;;;;;7.55;3.35;;;15.30;49.10;;;;;;4920502;29;20527;-85
2021/06/14 06:43:02;;;;;;;6.53;2.97;;;15.40;49.30;;;;;;4920109;29;20064;-84
2021/06/14 06:45:28;;;;;;;9.38;3.15;;;15.50;49.40;;;;;;4920043;29;20217;-83
2021/06/14 06:47:54;;;;;;;8.48;3.55;;;15.60;49.30;;;;;;4919994;29;20476;-85
2021/06/14 06:50:21;;;;;;;6.60;2.95;;;15.70;49.40;;;;;;4919951;29;20497;-83
2021/06/14 06:52:46;;;;;;;7.28;2.80;;;15.90;49.60;;;;;;4919418;29;20032;-83
2021/06/14 06:55:14;;;;;;;7.85;2.83;;;16.00;49.60;;;;;;4919897;29;20524;-84
2021/06/14 06:57:41;;;;;;;7.10;2.97;;;16.20;49.40;;;;;;4918499;29;20127;-84
2021/06/14 07:00:10;;;;;;;7.45;2.92;;;16.40;49.70;;;;;;4919985;29;20020;-84
2021/06/14 07:02:36;;;;;;;8.25;2.80;;;16.40;49.40;;;;;;4919961;29;20031;-84
2021/06/14 07:05:02;;;;;;;7.55;2.72;;;16.60;49.40;;;;;;4919673;29;20028;-84
2021/06/14 07:07:39;;;;;;;8.40;2.70;;;16.70;49.20;;;;;;4902990;29;20034;-85
2021/06/14 07:10:10;;;;;;;8.38;2.58;;;16.60;49.00;;;;;;4917880;29;20086;-85
2021/06/14 07:12:37;;;;;;;6.88;2.58;;;16.80;49.20;;;;;;4922573;29;20362;-85
2021/06/14 07:15:11;;;;;;;9.18;3.00;;;17.00;49.20;;;;;;4919342;29;20040;-86
2021/06/14 07:21:00;;;;;;;6.93;2.80;;;17.20;49.50;;;;;;4918206;29;20260;-85
2021/06/14 07:23:41;;;;;;;7.15;2.80;;;17.40;49.40;;;;;;4921739;29;20753;-85
2021/06/14 07:26:33;;;;;;;8.52;2.67;;;17.50;49.20;;;;;;4917518;29;20020;-85
2021/06/14 07:28:59;;;;;;;7.00;2.80;;;17.60;49.30;;;;;;4917683;29;20076;-86
2021/06/14 07:31:25;;;;;;;6.63;2.80;;;17.80;49.50;;;;;;4927421;29;20481;-85
2021/06/14 07:33:51;;;;;;;7.28;2.88;;;17.90;49.20;;;;;;4902217;29;20047;-86
2021/06/14 07:36:16;;;;;;;7.82;2.80;;;18.00;49.00;;;;;;4901817;29;20354;-86
2021/06/14 07:38:43;;;;;;;5.60;2.35;;;18.00;48.80;;;;;;4919181;29;20079;-85
2021/06/14 07:41:09;;;;;;;11.00;2.97;;;18.10;48.90;;;;;;4921870;29;20504;-86
2021/06/14 07:43:35;;;;;;;6.38;2.33;;;18.10;48.80;;;;;;4918043;29;20032;-86
2021/06/14 07:46:01;;;;;;;7.75;2.40;;;18.20;48.80;;;;;;4918761;29;20111;-86
2021/06/14 07:48:27;;;;;;;8.10;2.40;;;18.30;48.70;;;;;;4918634;29;20028;-86
2021/06/14 07:50:54;;;;;;;6.10;2.40;;;18.30;48.50;;;;;;4918590;29;20016;-86
2021/06/14 07:53:19;;;;;;;8.63;3.00;;;18.40;48.50;;;;;;4901840;29;20477;-84
2021/06/14 07:55:45;;;;;;;7.18;2.85;;;18.40;48.60;;;;;;4917042;29;20036;-85
2021/06/14 07:58:11;;;;;;;6.60;2.42;;;18.50;48.60;;;;;;4918068;29;20056;-86
2021/06/14 08:00:39;;;;;;;9.30;2.67;;;18.60;48.80;;;;;;4918750;29;20030;-86
2021/06/14 08:03:05;;;;;;;6.40;2.67;;;18.70;48.70;;;;;;4919967;29;20044;-86
2021/06/14 08:05:31;;;;;;;7.53;2.50;;;18.80;48.50;;;;;;4918556;29;20020;-85
2021/06/14 08:07:56;;;;;;;8.85;2.80;;;18.80;48.80;;;;;;4918031;29;20016;-85
2021/06/14 08:10:22;;;;;;;6.63;2.75;;;19.00;49.00;;;;;;4901370;29;20396;-84
2021/06/14 08:12:50;;;;;;;4.75;2.35;;;19.10;48.80;;;;;;4927738;29;20028;-84
2021/06/14 08:15:25;;;;;;;4.90;2.50;;;19.20;49.00;;;;;;4901163;29;20048;-85
2021/06/14 08:17:53;;;;;;;6.55;2.58;;;19.40;48.80;;;;;;4917998;29;20063;-85
2021/06/14 08:20:31;;;;;;;4.65;2.35;;;19.40;48.50;;;;;;4918229;29;20020;-85
2021/06/14 08:25:45;;;;;;;7.93;2.75;;;19.60;48.70;;;;;;4917370;29;20024;-86
2021/06/14 08:28:11;;;;;;;6.63;2.47;;;19.70;48.40;;;;;;4914914;29;20448;-85
2021/06/14 08:30:37;;;;;;;8.32;3.05;;;19.70;48.40;;;;;;4917947;29;20064;-86
2021/06/14 08:33:03;;;;;;;6.70;2.65;;;19.80;48.30;;;;;;4900849;29;20621;-87
2021/06/14 08:35:29;;;;;;;7.88;2.53;;;19.80;48.40;;;;;;4905998;29;20468;-88
2021/06/14 08:37:56;;;;;;;6.10;2.60;;;19.80;48.00;;;;;;4920823;29;20047;-88
2021/06/14 08:40:28;;;;;;;5.32;2.42;;;19.90;48.20;;;;;;4901124;29;20099;-87
2021/06/14 08:43:06;;;;;;;6.65;2.60;;;19.90;48.00;;;;;;4900698;29;20382;-87
2021/06/14 08:45:34;;;;;;;6.00;2.67;;;19.90;48.10;;;;;;4900724;29;20024;-87
2021/06/14 08:48:00;;;;;;;5.88;2.53;;;20.00;48.30;;;;;;4900649;29;20032;-88
2021/06/14 08:50:26;;;;;;;7.63;2.50;;;20.10;48.50;;;;;;4900787;29;20388;-87
2021/06/14 08:52:53;;;;;;;7.57;2.72;;;20.20;48.30;;;;;;4917750;29;20032;-86
2021/06/14 08:55:18;;;;;;;7.22;2.95;;;20.20;48.10;;;;;;4917216;29;20024;-87
2021/06/14 08:57:46;;;;;;;8.38;2.33;;;20.30;48.20;;;;;;4917329;29;20054;-87
2021/06/14 09:00:18;;;;;;;7.40;2.67;;;20.40;48.30;;;;;;4900536;29;20032;-87
2021/06/14 09:02:45;;;;;;;6.47;2.58;;;20.40;48.30;;;;;;4917455;29;20455;-88
2021/06/14 09:05:12;;;;;;;6.93;2.42;;;20.50;48.10;;;;;;4916885;29;20067;-87
2021/06/14 09:07:40;;;;;;;6.45;2.60;;;20.60;48.10;;;;;;4917498;29;20036;-87
2021/06/14 09:10:06;;;;;;;6.82;2.92;;;20.60;47.90;;;;;;4917256;29;20024;-86
2021/06/14 09:12:52;;;;;;;6.85;2.58;;;20.70;48.40;;;;;;4919205;29;20028;-86
2021/06/14 09:15:17;;;;;;;5.82;2.50;;;20.90;48.30;;;;;;4919847;29;20036;-86
2021/06/14 09:17:52;;;;;;;7.03;2.47;;;21.00;48.30;;;;;;4917331;29;20083;-86
2021/06/14 09:20:19;;;;;;;7.05;2.33;;;21.10;48.20;;;;;;4917191;29;20086;-87
2021/06/14 09:22:44;;;;;;;4.85;2.42;;;21.20;48.00;;;;;;4919917;29;20388;-86
2021/06/14 09:25:15;;;;;;;6.45;2.63;;;21.30;47.90;;;;;;4915606;29;20106;-87
2021/06/14 09:27:46;;;;;;;5.18;2.40;;;21.30;47.60;;;;;;4917605;29;20067;-89
2021/06/14 09:30:20;;;;;;;6.10;2.70;;;21.30;47.70;;;;;;4919182;29;20024;-86
2021/06/14 09:32:55;;;;;;;5.78;2.38;;;21.50;48.20;;;;;;4917202;29;20020;-86
2021/06/14 09:35:22;;;;;;;6.40;2.40;;;21.60;48.00;;;;;;4916853;29;20369;-85
2021/06/14 09:38:03;;;;;;;5.82;2.30;;;21.70;48.10;;;;;;4900331;29;20123;-87
2021/06/14 09:40:29;;;;;;;6.03;2.30;;;21.90;47.90;;;;;;4917126;29;20107;-86
2021/06/14 09:42:57;;;;;;;6.07;2.33;;;22.00;47.70;;;;;;4917279;29;20103;-86
2021/06/14 09:45:23;;;;;;;7.78;2.50;;;22.10;47.50;;;;;;4916624;29;20163;-87
2021/06/14 09:47:52;;;;;;;5.57;2.38;;;22.30;47.00;;;;;;4916871;29;20021;-87
2021/06/14 09:50:30;;;;;;;7.38;2.72;;;22.40;47.30;;;;;;4916682;29;20098;-84
2021/06/14 09:53:13;;;;;;;6.55;2.30;;;22.40;47.30;;;;;;4915975;29;20020;-85
2021/06/14 09:55:42;;;;;;;4.55;2.10;;;22.60;47.20;;;;;;4914758;29;20039;-86
2021/06/14 09:58:13;;;;;;;6.03;2.53;;;22.70;46.90;;;;;;4916169;29;20425;-85
2021/06/14 10:01:01;;;;;;;5.28;2.72;;;22.80;46.70;;;;;;4900032;29;20381;-87
2021/06/14 10:03:41;;;;;;;7.68;2.78;;;23.00;46.90;;;;;;4915852;29;20358;-87
2021/06/14 10:06:07;;;;;;;5.85;2.30;;;23.10;46.80;;;;;;4916664;29;20017;-87
2021/06/14 10:08:34;;;;;;;4.90;2.10;;;23.20;46.40;;;;;;4917348;29;20032;-87
2021/06/14 10:11:03;;;;;;;7.65;2.30;;;23.30;46.50;;;;;;4917313;29;20024;-85
2021/06/14 10:13:29;;;;;;;5.28;2.17;;;23.40;46.50;;;;;;4918461;29;20031;-85
2021/06/14 10:16:04;;;;;;;4.95;2.30;;;23.50;46.20;;;;;;4912174;29;20045;-86
2021/06/14 10:18:34;;;;;;;6.05;2.10;;;23.60;46.10;;;;;;4916647;29;20055;-86
2021/06/14 10:21:04;;;;;;;5.10;2.13;;;23.70;45.70;;;;;;4916603;29;20032;-86
2021/06/14 10:23:42;;;;;;;;;;;;;;;;;;;;;
2021/06/14 10:26:08;;;;;;;5.00;2.13;;;23.70;45.60;;;;;;4916448;29;20016;-86
2021/06/14 10:28:34;;;;;;;5.75;2.53;;;23.90;45.70;;;;;;4899648;29;20123;-89
2021/06/14 10:31:00;;;;;;;7.07;2.30;;;24.10;45.80;;;;;;4916453;29;20024;-87
2021/06/14 10:33:46;;;;;;;7.10;2.42;;;24.20;45.40;;;;;;4916019;29;20020;-86
2021/06/14 10:53:27;;;;;;;;;;;;;;;;;;;;;
2021/06/14 11:06:52;;;;;;;4.50;2.00;;;26.30;44.80;;;;;;4662898;30;20528;-88
2021/06/14 11:09:18;;;;;;;3.78;2.05;;;26.50;44.40;;;;;;4731959;30;20032;-87
2021/06/14 11:11:43;;;;;;;3.90;1.95;;;26.60;44.50;;;;;;4776090;29;20110;-87
2021/06/14 11:14:09;;;;;;;7.72;2.42;;;26.80;44.40;;;;;;4877294;29;20506;-87
2021/06/14 11:16:36;;;;;;;4.15;2.10;;;27.10;44.90;;;;;;4910375;29;20119;-87
2021/06/14 11:19:09;;;;;;;4.38;2.00;;;27.50;45.50;;;;;;4919107;29;20035;-87
2021/06/14 11:21:35;;;;;;;4.97;2.17;;;28.20;46.30;;;;;;4917176;29;20028;-87
2021/06/14 11:24:07;;;;;;;4.00;2.10;;;28.90;46.30;;;;;;4919563;29;20115;-87
2021/06/14 11:26:33;;;;;;;5.35;2.10;;;29.70;47.00;;;;;;4901924;29;20531;-87
2021/06/14 11:29:10;;;;;;;3.58;1.95;;;30.60;48.10;;;;;;4919431;29;20068;-87
2021/06/14 11:31:35;;;;;;;12.02;2.40;;;31.70;48.50;;;;;;4919329;29;20031;-87
2021/06/14 11:34:05;;;;;;;3.42;1.90;;;32.70;48.50;;;;;;4919125;29;20111;-87
2021/06/14 11:36:37;;;;;;;5.07;2.20;;;33.40;46.70;;;;;;4901811;29;20023;-87
2021/06/14 11:39:15;;;;;;;5.47;2.03;;;33.90;46.10;;;;;;4918967;29;20093;-88
2021/06/14 11:41:41;;;;;;;5.30;2.10;;;34.70;46.30;;;;;;4902349;29;20027;-87
2021/06/14 11:47:22;;;;;;;4.75;2.10;;;36.00;44.50;;;;;;4913446;29;20051;-86
2021/06/14 11:49:50;;;;;;;6.22;2.03;;;36.70;43.50;;;;;;4901791;29;20393;-86
2021/06/14 11:52:43;;;;;;;5.93;2.13;;;37.20;42.70;;;;;;4918682;29;20099;-87
2021/06/14 11:55:11;;;;;;;5.90;2.00;;;37.60;41.80;;;;;;4899445;29;20028;-86
2021/06/14 11:57:46;;;;;;;5.43;2.00;;;38.20;40.90;;;;;;4901417;29;20044;-87
2021/06/14 12:00:29;;;;;;;3.90;1.90;;;38.70;40.80;;;;;;4902030;29;20024;-87
2021/06/14 12:02:55;;;;;;;3.83;2.08;;;39.30;41.00;;;;;;4918740;29;20389;-87
2021/06/14 12:06:19;;;;;;;4.65;2.00;;;40.20;40.30;;;;;;4915031;29;20029;-87
2021/06/14 12:12:05;;;;;;;2.28;1.75;;;41.70;40.20;;;;;;4889249;29;20032;-85
2021/06/14 12:14:34;;;;;;;4.32;1.98;;;42.10;40.20;;;;;;4901382;29;20024;-85
2021/06/14 12:17:06;;;;;;;3.97;2.08;;;42.60;39.30;;;;;;4901164;29;20143;-86
2021/06/14 12:19:38;;;;;;;2.90;1.90;;;42.80;38.50;;;;;;4901334;29;20470;-86
2021/06/14 12:22:06;;;;;;;2.97;2.03;;;42.80;37.90;;;;;;4915487;29;20086;-85
2021/06/14 12:28:13;;;;;;;4.85;2.10;;;43.80;38.10;;;;;;4916745;29;20612;-86
2021/06/14 12:30:48;;;;;;;2.78;1.95;;;44.30;37.60;;;;;;4901175;29;20374;-86
2021/06/14 12:37:03;;;;;;;4.97;2.20;;;45.00;36.70;;;;;;4915791;29;20043;-86
2021/06/14 12:39:29;;;;;;;4.15;2.20;;;45.60;36.10;;;;;;4900867;29;20055;-86
2021/06/14 12:41:55;;;;;;;3.65;2.10;;;46.00;34.70;;;;;;4898218;29;20493;-87
2021/06/14 12:44:21;;;;;;;3.65;2.30;;;46.40;34.40;;;;;;4905852;29;20111;-86
2021/06/14 12:46:46;;;;;;;4.07;2.30;;;46.80;33.60;;;;;;4927995;29;20048;-86
2021/06/14 12:49:12;;;;;;;5.10;2.42;;;47.50;33.80;;;;;;4900026;29;20477;-87
2021/06/14 12:52:06;;;;;;;3.47;2.40;;;48.00;32.50;;;;;;4917596;29;20031;-87
2021/06/14 12:54:55;;;;;;;4.32;2.50;;;48.30;32.80;;;;;;4885094;29;20043;-86
2021/06/14 12:57:47;;;;;;;6.53;2.60;;;48.80;32.50;;;;;;4912228;29;20040;-86
2021/06/14 13:00:29;;;;;;;4.20;2.50;;;49.50;32.50;;;;;;4928355;29;20032;-88
2021/06/14 13:02:56;;;;;;;3.67;2.53;;;49.80;30.00;;;;;;4915574;29;20508;-87
2021/06/14 13:05:44;;;;;;;7.03;2.97;;;49.80;29.70;;;;;;4917364;29;20046;-87
2021/06/14 13:08:32;;;;;;;4.22;2.60;;;49.80;28.20;;;;;;4915246;29;20115;-87
2021/06/14 13:10:58;;;;;;;6.97;2.80;;;50.00;27.90;;;;;;4898542;29;20028;-87
2021/06/14 13:13:29;;;;;;;4.72;2.90;;;50.00;27.30;;;;;;4917246;29;20079;-86
2021/06/14 13:16:05;;;;;;;;;;;50.40;27.60;;;;;;4917594;29;20465;-86
2021/06/14 13:18:33;;;;;;;5.03;3.08;;;50.70;27.90;;;;;;4917149;29;19915;-86
2021/06/14 13:21:13;;;;;;;4.50;3.00;;;51.30;27.40;;;;;;4916006;29;20024;-86
2021/06/14 13:23:53;;;;;;;6.07;3.10;;;51.30;26.50;;;;;;4897223;29;20381;-85
2021/06/14 13:26:23;;;;;;;4.85;3.17;;;52.10;26.00;;;;;;4900240;29;20054;-85
2021/06/14 13:29:02;;;;;;;;;;;;;;;;;;;;;
2021/06/14 13:31:31;;;;;;;4.85;3.22;;;52.00;25.00;;;;;;4915800;29;20044;-86
2021/06/14 13:34:07;;;;;;;4.97;3.50;;;52.40;24.90;;;;;;4917208;29;20072;-86
2021/06/14 13:36:37;;;;;;;4.10;3.28;;;52.80;24.30;;;;;;4899732;29;20032;-85
2021/06/14 13:39:05;;;;;;;;;;;52.70;24.40;;;;;;4931870;29;20043;-86
2021/06/14 13:52:11;;;;;;;6.25;3.90;;;54.30;23.90;;;;;;4893409;29;20485;-86
2021/06/14 13:55:12;;;;;;;6.95;4.00;;;54.50;23.30;;;;;;4914785;29;20028;-86